createdAt,value
2016-12-21T00:00:25.978Z,0
2016-12-21T00:01:06.551Z,0
2016-12-21T00:01:47.140Z,0
2016-12-21T00:02:27.758Z,0
2016-12-21T00:03:08.387Z,0
2016-12-21T00:03:48.971Z,0
2016-12-21T00:04:29.573Z,0
2016-12-21T00:05:10.170Z,0
2016-12-21T00:05:50.744Z,0
2016-12-21T00:06:31.347Z,0
2016-12-21T00:07:11.965Z,0
2016-12-21T00:07:52.578Z,0
2016-12-21T00:08:33.227Z,0
2016-12-21T00:09:13.809Z,0
2016-12-21T00:09:54.408Z,0
2016-12-21T00:10:34.979Z,0
2016-12-21T00:11:15.562Z,0
2016-12-21T00:11:56.151Z,0
2016-12-21T00:12:36.737Z,0
2016-12-21T00:13:17.327Z,0
2016-12-21T00:13:57.928Z,0
2016-12-21T00:14:38.520Z,0
2016-12-21T00:15:19.145Z,0
2016-12-21T00:15:59.736Z,0
2016-12-21T00:16:40.330Z,0
2016-12-21T00:17:20.928Z,0
2016-12-21T00:18:01.515Z,0
2016-12-21T00:18:42.111Z,0
2016-12-21T00:19:22.689Z,0
2016-12-21T00:20:03.301Z,0
2016-12-21T00:20:43.884Z,0
2016-12-21T00:21:24.493Z,0
2016-12-21T00:22:05.086Z,0
2016-12-21T00:22:45.668Z,0
2016-12-21T00:23:26.261Z,0
2016-12-21T00:24:06.848Z,0
2016-12-21T00:24:47.452Z,0
2016-12-21T00:25:28.071Z,0
2016-12-21T00:26:08.669Z,0
2016-12-21T00:26:49.247Z,0
2016-12-21T00:27:29.825Z,0
2016-12-21T00:28:10.442Z,0
2016-12-21T00:28:51.044Z,0
2016-12-21T00:29:31.687Z,0
2016-12-21T00:30:12.294Z,0
2016-12-21T00:30:52.875Z,0
2016-12-21T00:31:33.471Z,0
2016-12-21T00:32:14.102Z,0
2016-12-21T00:32:54.689Z,0
2016-12-21T00:33:35.283Z,0
2016-12-21T00:34:15.901Z,0
2016-12-21T00:34:56.499Z,0
2016-12-21T00:35:37.108Z,0
2016-12-21T00:36:17.685Z,0
2016-12-21T00:36:58.266Z,0
2016-12-21T00:37:38.844Z,0
2016-12-21T00:38:19.425Z,0
2016-12-21T00:39:00.006Z,0
2016-12-21T00:39:40.645Z,0
2016-12-21T00:40:21.257Z,0
2016-12-21T00:41:01.912Z,0
2016-12-21T00:41:42.531Z,0
2016-12-21T00:42:23.112Z,0
2016-12-21T00:43:03.727Z,0
2016-12-21T00:43:44.330Z,0
2016-12-21T00:44:24.923Z,0
2016-12-21T00:45:05.523Z,0
2016-12-21T00:45:46.120Z,0
2016-12-21T00:46:26.726Z,0
2016-12-21T00:47:07.343Z,0
2016-12-21T00:47:47.924Z,0
2016-12-21T00:48:28.536Z,0
2016-12-21T00:49:09.136Z,0
2016-12-21T00:49:49.732Z,0
2016-12-21T00:50:30.352Z,0
2016-12-21T00:51:10.940Z,0
2016-12-21T00:51:51.564Z,0
2016-12-21T00:52:32.266Z,0
2016-12-21T00:53:12.844Z,0
2016-12-21T00:53:53.495Z,0
2016-12-21T00:54:34.115Z,0
2016-12-21T00:55:14.712Z,0
2016-12-21T00:55:55.310Z,0
2016-12-21T00:56:35.910Z,0
2016-12-21T00:57:16.511Z,0
2016-12-21T00:57:57.122Z,0
2016-12-21T00:58:37.715Z,0
2016-12-21T00:59:18.339Z,0
2016-12-21T00:59:58.923Z,0
2016-12-21T01:00:39.534Z,0
2016-12-21T01:01:20.124Z,0
2016-12-21T01:02:00.722Z,0
2016-12-21T01:02:41.310Z,0
2016-12-21T01:03:21.919Z,0
2016-12-21T01:04:02.531Z,0
2016-12-21T01:04:43.138Z,0
2016-12-21T01:05:23.738Z,0
2016-12-21T01:06:04.338Z,0
2016-12-21T01:06:44.956Z,0
2016-12-21T01:07:25.593Z,0
2016-12-21T01:08:06.197Z,0
2016-12-21T01:08:46.829Z,0
2016-12-21T01:09:27.451Z,0
2016-12-21T01:10:08.050Z,0
2016-12-21T01:10:48.639Z,0
2016-12-21T01:11:29.269Z,0
2016-12-21T01:12:09.865Z,0
2016-12-21T01:12:50.469Z,0
2016-12-21T01:13:31.051Z,0
2016-12-21T01:14:11.644Z,0
2016-12-21T01:14:52.318Z,0
2016-12-21T01:15:32.929Z,0
2016-12-21T01:16:13.506Z,0
2016-12-21T01:16:54.155Z,0
2016-12-21T01:17:34.786Z,0
2016-12-21T01:18:15.378Z,0
2016-12-21T01:18:55.999Z,0
2016-12-21T01:19:36.565Z,0
2016-12-21T01:20:17.152Z,0
2016-12-21T01:20:57.727Z,0
2016-12-21T01:21:38.321Z,0
2016-12-21T01:22:18.918Z,0
2016-12-21T01:22:59.522Z,0
2016-12-21T01:23:40.105Z,0
2016-12-21T01:24:20.692Z,0
2016-12-21T01:25:01.294Z,0
2016-12-21T01:25:41.897Z,0
2016-12-21T01:26:22.498Z,0
2016-12-21T01:27:03.098Z,0
2016-12-21T01:27:43.699Z,0
2016-12-21T01:28:24.349Z,0
2016-12-21T01:29:04.964Z,0
2016-12-21T01:29:45.571Z,0
2016-12-21T01:30:26.179Z,0
2016-12-21T01:31:06.784Z,0
2016-12-21T01:31:47.442Z,0
2016-12-21T01:32:28.079Z,0
2016-12-21T01:33:08.671Z,0
2016-12-21T01:33:49.327Z,0
2016-12-21T01:34:29.925Z,0
2016-12-21T01:35:10.537Z,0
2016-12-21T01:35:51.122Z,0
2016-12-21T01:36:31.703Z,0
2016-12-21T01:37:12.289Z,0
2016-12-21T01:37:52.894Z,0
2016-12-21T01:38:33.488Z,0
2016-12-21T01:39:14.094Z,0
2016-12-21T01:39:54.686Z,0
2016-12-21T01:40:35.297Z,0
2016-12-21T01:41:15.896Z,0
2016-12-21T01:41:56.608Z,0
2016-12-21T01:42:37.211Z,0
2016-12-21T01:43:17.797Z,0
2016-12-21T01:43:58.478Z,0
2016-12-21T01:44:39.059Z,0
2016-12-21T01:45:19.655Z,0
2016-12-21T01:46:00.252Z,0
2016-12-21T01:46:40.843Z,0
2016-12-21T01:47:21.425Z,0
2016-12-21T01:48:02.040Z,0
2016-12-21T01:48:42.744Z,0
2016-12-21T01:49:23.318Z,0
2016-12-21T01:50:03.903Z,0
2016-12-21T01:50:44.485Z,0
2016-12-21T01:51:25.097Z,0
2016-12-21T01:52:05.721Z,0
2016-12-21T01:52:46.301Z,0
2016-12-21T01:53:26.891Z,0
2016-12-21T01:54:07.502Z,0
2016-12-21T01:54:48.116Z,0
2016-12-21T01:55:28.683Z,0
2016-12-21T01:56:09.293Z,0
2016-12-21T01:56:49.897Z,0
2016-12-21T01:57:30.504Z,0
2016-12-21T01:58:11.105Z,0
2016-12-21T01:58:51.694Z,0
2016-12-21T01:59:32.322Z,0
2016-12-21T02:00:12.945Z,0
2016-12-21T02:00:53.535Z,0
2016-12-21T02:01:34.116Z,0
2016-12-21T02:02:14.832Z,0
2016-12-21T02:02:55.437Z,0
2016-12-21T02:03:36.035Z,0
2016-12-21T02:04:16.650Z,0
2016-12-21T02:04:57.234Z,0
2016-12-21T02:05:37.863Z,0
2016-12-21T02:06:18.418Z,0
2016-12-21T02:06:59.048Z,0
2016-12-21T02:07:39.626Z,0
2016-12-21T02:08:20.227Z,0
2016-12-21T02:09:00.813Z,0
2016-12-21T02:09:41.454Z,0
2016-12-21T02:10:22.064Z,0
2016-12-21T02:11:02.698Z,0
2016-12-21T02:11:43.336Z,0
2016-12-21T02:12:23.999Z,0
2016-12-21T02:13:04.595Z,0
2016-12-21T02:13:45.260Z,0
2016-12-21T02:14:25.869Z,0
2016-12-21T02:15:06.454Z,0
2016-12-21T02:15:47.060Z,0
2016-12-21T02:16:27.665Z,0
2016-12-21T02:17:08.293Z,0
2016-12-21T02:17:48.929Z,0
2016-12-21T02:18:29.552Z,0
2016-12-21T02:19:10.121Z,0
2016-12-21T02:19:50.726Z,0
2016-12-21T02:20:31.378Z,0
2016-12-21T02:21:12.001Z,0
2016-12-21T02:21:52.586Z,0
2016-12-21T02:22:33.173Z,0
2016-12-21T02:23:13.748Z,0
2016-12-21T02:23:54.359Z,0
2016-12-21T02:24:34.950Z,0
2016-12-21T02:25:15.541Z,0
2016-12-21T02:25:56.150Z,0
2016-12-21T02:26:36.764Z,0
2016-12-21T02:27:17.383Z,0
2016-12-21T02:27:57.996Z,0
2016-12-21T02:28:38.597Z,0
2016-12-21T02:29:19.194Z,0
2016-12-21T02:29:59.835Z,0
2016-12-21T02:30:40.428Z,0
2016-12-21T02:31:21.027Z,0
2016-12-21T02:32:01.630Z,0
2016-12-21T02:32:42.224Z,0
2016-12-21T02:33:22.807Z,0
2016-12-21T02:34:03.422Z,0
2016-12-21T02:34:44.019Z,0
2016-12-21T02:35:24.680Z,0
2016-12-21T02:36:05.275Z,0
2016-12-21T02:36:45.924Z,0
2016-12-21T02:37:26.537Z,0
2016-12-21T02:38:07.147Z,0
2016-12-21T02:38:47.759Z,0
2016-12-21T02:39:28.340Z,0
2016-12-21T02:40:08.946Z,0
2016-12-21T02:40:49.544Z,0
2016-12-21T02:41:30.164Z,0
2016-12-21T02:42:10.819Z,0
2016-12-21T02:42:51.442Z,0
2016-12-21T02:43:32.077Z,0
2016-12-21T02:44:12.634Z,0
2016-12-21T02:44:53.228Z,0
2016-12-21T02:45:33.878Z,0
2016-12-21T02:46:14.501Z,0
2016-12-21T02:46:55.099Z,0
2016-12-21T02:47:35.720Z,0
2016-12-21T02:48:16.323Z,0
2016-12-21T02:48:56.915Z,0
2016-12-21T02:49:37.556Z,0
2016-12-21T02:50:18.200Z,0
2016-12-21T02:50:58.824Z,0
2016-12-21T02:51:39.444Z,0
2016-12-21T02:52:20.027Z,0
2016-12-21T02:53:00.648Z,0
2016-12-21T02:53:41.266Z,0
2016-12-21T02:54:21.859Z,0
2016-12-21T02:55:02.474Z,0
2016-12-21T02:55:43.073Z,0
2016-12-21T02:56:23.690Z,0
2016-12-21T02:57:04.328Z,0
2016-12-21T02:57:44.929Z,0
2016-12-21T02:58:25.512Z,0
2016-12-21T02:59:06.099Z,0
2016-12-21T02:59:46.740Z,0
2016-12-21T03:00:27.377Z,0
2016-12-21T03:01:07.961Z,0
2016-12-21T03:01:48.549Z,0
2016-12-21T03:02:29.131Z,0
2016-12-21T03:03:09.723Z,0
2016-12-21T03:03:50.344Z,0
2016-12-21T03:04:30.934Z,0
2016-12-21T03:05:11.503Z,0
2016-12-21T03:05:52.100Z,0
2016-12-21T03:06:32.747Z,0
2016-12-21T03:07:13.359Z,0
2016-12-21T03:07:53.921Z,0
2016-12-21T03:08:34.497Z,0
2016-12-21T03:09:15.092Z,0
2016-12-21T03:09:55.698Z,0
2016-12-21T03:10:36.302Z,0
2016-12-21T03:11:16.911Z,0
2016-12-21T03:11:57.563Z,0
2016-12-21T03:12:38.187Z,0
2016-12-21T03:13:18.816Z,0
2016-12-21T03:13:59.432Z,0
2016-12-21T03:14:40.091Z,0
2016-12-21T03:15:20.689Z,0
2016-12-21T03:16:01.277Z,0
2016-12-21T03:16:41.990Z,0
2016-12-21T03:17:22.596Z,0
2016-12-21T03:18:03.191Z,0
2016-12-21T03:18:43.782Z,0
2016-12-21T03:19:24.396Z,0
2016-12-21T03:20:05.001Z,0
2016-12-21T03:20:45.592Z,0
2016-12-21T03:21:26.207Z,0
2016-12-21T03:22:06.801Z,0
2016-12-21T03:22:47.396Z,0
2016-12-21T03:23:27.988Z,0
2016-12-21T03:24:08.575Z,0
2016-12-21T03:24:49.153Z,0
2016-12-21T03:25:29.732Z,0
2016-12-21T03:26:10.417Z,0
2016-12-21T03:26:51.021Z,0
2016-12-21T03:27:31.636Z,0
2016-12-21T03:28:12.205Z,0
2016-12-21T03:28:52.828Z,0
2016-12-21T03:29:33.405Z,0
2016-12-21T03:30:13.982Z,0
2016-12-21T03:30:54.565Z,0
2016-12-21T03:31:35.175Z,0
2016-12-21T03:32:15.776Z,0
2016-12-21T03:32:56.421Z,0
2016-12-21T03:33:37.041Z,0
2016-12-21T03:34:17.636Z,0
2016-12-21T03:34:58.225Z,0
2016-12-21T03:35:38.813Z,0
2016-12-21T03:36:19.383Z,0
2016-12-21T03:36:59.975Z,0
2016-12-21T03:37:40.563Z,0
2016-12-21T03:38:21.178Z,0
2016-12-21T03:39:01.761Z,0
2016-12-21T03:39:42.341Z,0
2016-12-21T03:40:22.946Z,0
2016-12-21T03:41:03.533Z,0
2016-12-21T03:41:44.136Z,0
2016-12-21T03:42:24.725Z,0
2016-12-21T03:43:05.355Z,0
2016-12-21T03:43:45.951Z,0
2016-12-21T03:44:26.597Z,0
2016-12-21T03:45:07.208Z,0
2016-12-21T03:45:47.815Z,0
2016-12-21T03:46:28.392Z,0
2016-12-21T03:47:08.980Z,0
2016-12-21T03:47:49.564Z,0
2016-12-21T03:48:30.191Z,0
2016-12-21T03:49:10.772Z,0
2016-12-21T03:49:51.356Z,0
2016-12-21T03:50:31.942Z,0
2016-12-21T03:51:12.591Z,0
2016-12-21T03:51:53.184Z,0
2016-12-21T03:52:33.800Z,0
2016-12-21T03:53:14.365Z,0
2016-12-21T03:53:54.974Z,0
2016-12-21T03:54:35.591Z,0
2016-12-21T03:55:16.169Z,0
2016-12-21T03:55:56.794Z,0
2016-12-21T03:56:37.386Z,0
2016-12-21T03:57:18.005Z,0
2016-12-21T03:57:58.640Z,0
2016-12-21T03:58:39.268Z,0
2016-12-21T03:59:19.858Z,0
2016-12-21T04:00:00.496Z,0
2016-12-21T04:00:41.119Z,0
2016-12-21T04:01:21.722Z,0
2016-12-21T04:02:02.341Z,0
2016-12-21T04:02:42.931Z,0
2016-12-21T04:03:23.572Z,0
2016-12-21T04:04:04.214Z,0
2016-12-21T04:04:44.791Z,0
2016-12-21T04:05:25.408Z,0
2016-12-21T04:06:06.020Z,0
2016-12-21T04:06:46.606Z,0
2016-12-21T04:07:27.229Z,0
2016-12-21T04:08:07.808Z,0
2016-12-21T04:08:48.459Z,0
2016-12-21T04:09:29.073Z,0
2016-12-21T04:10:09.675Z,0
2016-12-21T04:10:50.245Z,0
2016-12-21T04:11:30.835Z,0
2016-12-21T04:12:11.417Z,0
2016-12-21T04:12:52.021Z,0
2016-12-21T04:13:32.647Z,0
2016-12-21T04:14:13.271Z,0
2016-12-21T04:14:53.887Z,0
2016-12-21T04:15:34.494Z,0
2016-12-21T04:16:15.078Z,0
2016-12-21T04:16:55.722Z,0
2016-12-21T04:17:36.333Z,0
2016-12-21T04:18:16.943Z,0
2016-12-21T04:18:57.550Z,0
2016-12-21T04:19:38.158Z,0
2016-12-21T04:20:18.744Z,0
2016-12-21T04:20:59.360Z,0
2016-12-21T04:21:39.987Z,0
2016-12-21T04:22:20.598Z,0
2016-12-21T04:23:01.189Z,0
2016-12-21T04:23:41.784Z,0
2016-12-21T04:24:22.374Z,0
2016-12-21T04:25:02.986Z,0
2016-12-21T04:25:43.597Z,0
2016-12-21T04:26:24.195Z,0
2016-12-21T04:27:04.842Z,0
2016-12-21T04:27:45.425Z,0
2016-12-21T04:28:26.006Z,0
2016-12-21T04:29:06.631Z,0
2016-12-21T04:29:47.205Z,0
2016-12-21T04:30:27.785Z,0
2016-12-21T04:31:08.370Z,0
2016-12-21T04:31:48.961Z,0
2016-12-21T04:32:29.561Z,0
2016-12-21T04:33:10.166Z,0
2016-12-21T04:33:50.783Z,0
2016-12-21T04:34:31.374Z,0
2016-12-21T04:35:11.986Z,0
2016-12-21T04:35:52.579Z,0
2016-12-21T04:36:33.181Z,0
2016-12-21T04:37:13.768Z,0
2016-12-21T04:37:54.388Z,0
2016-12-21T04:38:35.009Z,0
2016-12-21T04:39:15.605Z,0
2016-12-21T04:39:56.194Z,0
2016-12-21T04:40:36.847Z,0
2016-12-21T04:41:17.504Z,0
2016-12-21T04:41:58.215Z,0
2016-12-21T04:42:38.795Z,0
2016-12-21T04:43:19.454Z,0
2016-12-21T04:44:00.062Z,0
2016-12-21T04:44:40.655Z,0
2016-12-21T04:45:21.254Z,0
2016-12-21T04:46:01.859Z,0
2016-12-21T04:46:42.460Z,0
2016-12-21T04:47:23.091Z,0
2016-12-21T04:48:03.713Z,0
2016-12-21T04:48:44.314Z,0
2016-12-21T04:49:24.898Z,0
2016-12-21T04:50:05.484Z,0
2016-12-21T04:50:46.086Z,0
2016-12-21T04:51:26.693Z,0
2016-12-21T04:52:07.284Z,0
2016-12-21T04:52:47.879Z,0
2016-12-21T04:53:28.461Z,0
2016-12-21T04:54:09.048Z,0
2016-12-21T04:54:49.637Z,0
2016-12-21T04:55:30.227Z,0
2016-12-21T04:56:10.865Z,0
2016-12-21T04:56:51.480Z,0
2016-12-21T04:57:32.098Z,0
2016-12-21T04:58:12.681Z,0
2016-12-21T04:58:53.332Z,0
2016-12-21T04:59:33.950Z,0
2016-12-21T05:00:14.551Z,0
2016-12-21T05:00:55.143Z,0
2016-12-21T05:01:35.753Z,0
2016-12-21T05:02:16.354Z,0
2016-12-21T05:02:56.962Z,0
2016-12-21T05:03:37.555Z,0
2016-12-21T05:04:18.162Z,0
2016-12-21T05:04:58.757Z,0
2016-12-21T05:05:39.363Z,0
2016-12-21T05:06:19.961Z,0
2016-12-21T05:07:00.593Z,0
2016-12-21T05:07:41.173Z,0
2016-12-21T05:08:21.782Z,0
2016-12-21T05:09:02.368Z,0
2016-12-21T05:09:42.972Z,0
2016-12-21T05:10:23.561Z,0
2016-12-21T05:11:04.195Z,0
2016-12-21T05:11:44.783Z,0
2016-12-21T05:12:25.377Z,0
2016-12-21T05:13:05.983Z,0
2016-12-21T05:13:46.584Z,0
2016-12-21T05:14:27.186Z,0
2016-12-21T05:15:07.776Z,0
2016-12-21T05:15:48.350Z,0
2016-12-21T05:16:28.953Z,0
2016-12-21T05:17:09.550Z,0
2016-12-21T05:17:50.198Z,0
2016-12-21T05:18:30.781Z,0
2016-12-21T05:19:11.358Z,0
2016-12-21T05:19:51.935Z,0
2016-12-21T05:20:32.551Z,0
2016-12-21T05:21:13.156Z,0
2016-12-21T05:21:53.748Z,0
2016-12-21T05:22:34.327Z,0
2016-12-21T05:23:14.906Z,0
2016-12-21T05:23:55.511Z,0
2016-12-21T05:24:36.097Z,0
2016-12-21T05:25:16.708Z,0
2016-12-21T05:25:57.306Z,0
2016-12-21T05:26:37.908Z,0
2016-12-21T05:27:18.498Z,0
2016-12-21T05:27:59.122Z,0
2016-12-21T05:28:39.709Z,0
2016-12-21T05:29:20.286Z,0
2016-12-21T05:30:00.889Z,0
2016-12-21T05:30:41.467Z,0
2016-12-21T05:31:22.064Z,0
2016-12-21T05:32:02.668Z,0
2016-12-21T05:32:43.270Z,0
2016-12-21T05:33:23.841Z,0
2016-12-21T05:34:04.451Z,0
2016-12-21T05:34:45.055Z,0
2016-12-21T05:35:25.662Z,0
2016-12-21T05:36:06.246Z,0
2016-12-21T05:36:46.833Z,0
2016-12-21T05:37:27.406Z,0
2016-12-21T05:38:07.991Z,0
2016-12-21T05:38:48.625Z,0
2016-12-21T05:39:29.239Z,0
2016-12-21T05:40:09.842Z,0
2016-12-21T05:40:50.464Z,0
2016-12-21T05:41:31.105Z,0
2016-12-21T05:42:11.708Z,0
2016-12-21T05:42:52.279Z,0
2016-12-21T05:43:32.864Z,0
2016-12-21T05:44:13.464Z,0
2016-12-21T05:44:54.100Z,0
2016-12-21T05:45:34.706Z,0
2016-12-21T05:46:15.294Z,0
2016-12-21T05:46:55.879Z,0
2016-12-21T05:47:36.461Z,0
2016-12-21T05:48:17.062Z,0
2016-12-21T05:48:57.670Z,0
2016-12-21T05:49:38.250Z,0
2016-12-21T05:50:18.834Z,0
2016-12-21T05:50:59.477Z,0
2016-12-21T05:51:40.055Z,0
2016-12-21T05:52:20.635Z,0
2016-12-21T05:53:01.218Z,0
2016-12-21T05:53:41.799Z,0
2016-12-21T05:54:22.394Z,0
2016-12-21T05:55:02.974Z,0
2016-12-21T05:55:43.575Z,0
2016-12-21T05:56:24.145Z,0
2016-12-21T05:57:04.741Z,0
2016-12-21T05:57:45.360Z,0
2016-12-21T05:58:25.952Z,0
2016-12-21T05:59:06.550Z,0
2016-12-21T05:59:47.182Z,4
2016-12-21T06:00:27.747Z,8
2016-12-21T06:01:08.336Z,8
2016-12-21T06:01:48.922Z,12
2016-12-21T06:02:29.579Z,12
2016-12-21T06:03:10.167Z,12
2016-12-21T06:03:50.786Z,12
2016-12-21T06:04:31.370Z,12
2016-12-21T06:05:12.002Z,12
2016-12-21T06:05:52.606Z,12
2016-12-21T06:06:33.189Z,12
2016-12-21T06:07:13.795Z,12
2016-12-21T06:07:54.389Z,12
2016-12-21T06:08:34.971Z,12
2016-12-21T06:09:15.551Z,12
2016-12-21T06:09:56.153Z,12
2016-12-21T06:10:36.741Z,12
2016-12-21T06:11:17.375Z,12
2016-12-21T06:11:57.991Z,12
2016-12-21T06:12:38.569Z,12
2016-12-21T06:13:19.179Z,12
2016-12-21T06:13:59.778Z,12
2016-12-21T06:14:40.350Z,12
2016-12-21T06:15:20.978Z,12
2016-12-21T06:16:01.562Z,12
2016-12-21T06:16:42.166Z,12
2016-12-21T06:17:22.770Z,12
2016-12-21T06:18:03.361Z,12
2016-12-21T06:18:43.957Z,12
2016-12-21T06:19:24.545Z,12
2016-12-21T06:20:05.124Z,12
2016-12-21T06:20:45.734Z,12
2016-12-21T06:21:26.308Z,12
2016-12-21T06:22:06.884Z,12
2016-12-21T06:22:47.476Z,12
2016-12-21T06:23:28.093Z,12
2016-12-21T06:24:08.696Z,12
2016-12-21T06:24:49.292Z,12
2016-12-21T06:25:29.892Z,12
2016-12-21T06:26:10.477Z,12
2016-12-21T06:26:51.096Z,12
2016-12-21T06:27:31.747Z,12
2016-12-21T06:28:12.378Z,12
2016-12-21T06:28:52.967Z,12
2016-12-21T06:29:33.604Z,12
2016-12-21T06:30:14.215Z,12
2016-12-21T06:30:54.821Z,12
2016-12-21T06:31:35.429Z,12
2016-12-21T06:32:16.012Z,12
2016-12-21T06:32:56.620Z,12
2016-12-21T06:33:37.269Z,12
2016-12-21T06:34:17.913Z,12
2016-12-21T06:34:58.520Z,12
2016-12-21T06:35:39.161Z,12
2016-12-21T06:36:19.770Z,12
2016-12-21T06:37:00.391Z,12
2016-12-21T06:37:41.017Z,12
2016-12-21T06:38:21.616Z,12
2016-12-21T06:39:02.190Z,12
2016-12-21T06:39:42.794Z,12
2016-12-21T06:40:23.399Z,12
2016-12-21T06:41:03.980Z,12
2016-12-21T06:41:44.567Z,12
2016-12-21T06:42:25.162Z,12
2016-12-21T06:43:05.805Z,12
2016-12-21T06:43:46.396Z,12
2016-12-21T06:44:26.986Z,12
2016-12-21T06:45:07.585Z,12
2016-12-21T06:45:48.164Z,12
2016-12-21T06:46:28.756Z,12
2016-12-21T06:47:09.351Z,12
2016-12-21T06:47:49.939Z,12
2016-12-21T06:48:30.511Z,12
2016-12-21T06:49:11.106Z,12
2016-12-21T06:49:51.694Z,12
2016-12-21T06:50:32.334Z,12
2016-12-21T06:51:12.942Z,12
2016-12-21T06:51:53.534Z,12
2016-12-21T06:52:34.106Z,12
2016-12-21T06:53:14.695Z,12
2016-12-21T06:53:55.297Z,12
2016-12-21T06:54:35.939Z,12
2016-12-21T06:55:16.524Z,12
2016-12-21T06:55:57.135Z,12
2016-12-21T06:56:37.793Z,12
2016-12-21T06:57:18.356Z,12
2016-12-21T06:57:58.934Z,12
2016-12-21T06:58:39.543Z,12
2016-12-21T06:59:20.152Z,12
2016-12-21T07:00:00.741Z,0
2016-12-21T07:00:41.365Z,0
2016-12-21T07:01:21.983Z,0
2016-12-21T07:02:02.633Z,0
2016-12-21T07:02:43.226Z,0
2016-12-21T07:03:23.837Z,0
2016-12-21T07:04:04.426Z,0
2016-12-21T07:04:44.997Z,0
2016-12-21T07:05:25.660Z,0
2016-12-21T07:06:06.228Z,0
2016-12-21T07:06:46.835Z,0
2016-12-21T07:07:27.446Z,0
2016-12-21T07:08:08.073Z,0
2016-12-21T07:08:48.677Z,0
2016-12-21T07:09:29.260Z,0
2016-12-21T07:10:09.859Z,0
2016-12-21T07:10:50.563Z,0
2016-12-21T07:11:31.172Z,0
2016-12-21T07:12:11.773Z,0
2016-12-21T07:12:52.364Z,0
2016-12-21T07:13:32.972Z,0
2016-12-21T07:14:13.598Z,0
2016-12-21T07:14:54.171Z,0
2016-12-21T07:15:34.753Z,0
2016-12-21T07:16:15.331Z,0
2016-12-21T07:16:55.928Z,0
2016-12-21T07:17:36.514Z,0
2016-12-21T07:18:17.104Z,0
2016-12-21T07:18:57.740Z,0
2016-12-21T07:19:38.336Z,4
2016-12-21T07:20:18.936Z,4
2016-12-21T07:20:59.583Z,4
2016-12-21T07:21:40.245Z,4
2016-12-21T07:22:20.843Z,4
2016-12-21T07:23:01.441Z,368
2016-12-21T07:23:42.037Z,516
2016-12-21T07:24:22.671Z,584
2016-12-21T07:25:03.256Z,616
2016-12-21T07:25:43.867Z,624
2016-12-21T07:26:24.456Z,640
2016-12-21T07:27:05.041Z,648
2016-12-21T07:27:45.650Z,652
2016-12-21T07:28:26.244Z,656
2016-12-21T07:29:06.843Z,656
2016-12-21T07:29:47.471Z,660
2016-12-21T07:30:28.080Z,660
2016-12-21T07:31:08.662Z,660
2016-12-21T07:31:49.272Z,660
2016-12-21T07:32:29.855Z,660
2016-12-21T07:33:10.477Z,664
2016-12-21T07:33:51.066Z,664
2016-12-21T07:34:31.708Z,664
2016-12-21T07:35:12.290Z,664
2016-12-21T07:35:52.896Z,668
2016-12-21T07:36:33.484Z,664
2016-12-21T07:37:14.095Z,664
2016-12-21T07:37:54.683Z,664
2016-12-21T07:38:35.294Z,664
2016-12-21T07:39:15.876Z,664
2016-12-21T07:39:56.482Z,668
2016-12-21T07:40:37.091Z,664
2016-12-21T07:41:17.722Z,668
2016-12-21T07:41:58.324Z,668
2016-12-21T07:42:38.972Z,668
2016-12-21T07:43:19.555Z,668
2016-12-21T07:44:00.145Z,664
2016-12-21T07:44:40.734Z,668
2016-12-21T07:45:21.349Z,672
2016-12-21T07:46:01.958Z,668
2016-12-21T07:46:42.616Z,672
2016-12-21T07:47:23.200Z,672
2016-12-21T07:48:03.797Z,672
2016-12-21T07:48:44.408Z,672
2016-12-21T07:49:24.996Z,672
2016-12-21T07:50:05.581Z,672
2016-12-21T07:50:46.176Z,672
2016-12-21T07:51:26.771Z,676
2016-12-21T07:52:07.376Z,672
2016-12-21T07:52:47.979Z,672
2016-12-21T07:53:28.578Z,676
2016-12-21T07:54:09.215Z,676
2016-12-21T07:54:49.840Z,676
2016-12-21T07:55:30.430Z,676
2016-12-21T07:56:11.072Z,676
2016-12-21T07:56:51.665Z,676
2016-12-21T07:57:32.294Z,676
2016-12-21T07:58:12.902Z,680
2016-12-21T07:58:53.495Z,680
2016-12-21T07:59:34.090Z,676
2016-12-21T08:00:14.708Z,680
2016-12-21T08:00:55.326Z,680
2016-12-21T08:01:35.921Z,680
2016-12-21T08:02:16.511Z,680
2016-12-21T08:02:57.097Z,680
2016-12-21T08:03:37.686Z,680
2016-12-21T08:04:18.316Z,680
2016-12-21T08:04:58.932Z,680
2016-12-21T08:05:39.522Z,684
2016-12-21T08:06:20.125Z,680
2016-12-21T08:07:00.712Z,684
2016-12-21T08:07:41.305Z,680
2016-12-21T08:08:21.911Z,684
2016-12-21T08:09:02.493Z,680
2016-12-21T08:09:43.087Z,680
2016-12-21T08:10:23.677Z,684
2016-12-21T08:11:04.298Z,684
2016-12-21T08:11:44.880Z,684
2016-12-21T08:12:25.511Z,688
2016-12-21T08:13:06.117Z,688
2016-12-21T08:13:46.735Z,684
2016-12-21T08:14:27.345Z,688
2016-12-21T08:15:07.945Z,688
2016-12-21T08:15:48.552Z,688
2016-12-21T08:16:29.123Z,684
2016-12-21T08:17:09.706Z,684
2016-12-21T08:17:50.347Z,688
2016-12-21T08:18:30.941Z,688
2016-12-21T08:19:11.561Z,684
2016-12-21T08:19:52.159Z,684
2016-12-21T08:20:33.688Z,688
2016-12-21T08:21:14.336Z,688
2016-12-21T08:21:54.928Z,688
2016-12-21T08:22:35.562Z,688
2016-12-21T08:23:16.170Z,688
2016-12-21T08:23:56.774Z,692
2016-12-21T08:24:37.365Z,688
2016-12-21T08:25:17.948Z,692
2016-12-21T08:25:58.571Z,688
2016-12-21T08:26:39.936Z,692
2016-12-21T08:27:20.532Z,692
2016-12-21T08:28:01.372Z,692
2016-12-21T08:28:42.478Z,692
2016-12-21T08:29:23.058Z,692
2016-12-21T08:30:03.645Z,692
2016-12-21T08:30:44.303Z,692
2016-12-21T08:31:24.910Z,692
2016-12-21T08:32:05.543Z,692
2016-12-21T08:32:46.119Z,696
2016-12-21T08:33:26.750Z,696
2016-12-21T08:34:07.388Z,692
2016-12-21T08:34:48.010Z,692
2016-12-21T08:35:28.618Z,692
2016-12-21T08:36:09.232Z,692
2016-12-21T08:36:49.826Z,696
2016-12-21T08:37:30.417Z,692
2016-12-21T08:38:11.116Z,696
2016-12-21T08:38:51.696Z,696
2016-12-21T08:39:32.284Z,692
2016-12-21T08:40:12.894Z,692
2016-12-21T08:40:53.504Z,692
2016-12-21T08:41:34.173Z,696
2016-12-21T08:42:14.812Z,696
2016-12-21T08:42:55.422Z,696
2016-12-21T08:43:36.000Z,696
2016-12-21T08:44:16.607Z,696
2016-12-21T08:44:57.192Z,696
2016-12-21T08:45:37.822Z,696
2016-12-21T08:46:18.455Z,700
2016-12-21T08:46:59.090Z,700
2016-12-21T08:47:39.718Z,696
2016-12-21T08:48:20.323Z,696
2016-12-21T08:49:00.943Z,696
2016-12-21T08:49:41.597Z,696
2016-12-21T08:50:22.182Z,696
2016-12-21T08:51:02.786Z,696
2016-12-21T08:51:43.367Z,700
2016-12-21T08:52:24.035Z,696
2016-12-21T08:53:04.626Z,696
2016-12-21T08:53:45.256Z,696
2016-12-21T08:54:26.744Z,700
2016-12-21T08:55:06.544Z,700
2016-12-21T08:55:47.147Z,700
2016-12-21T08:56:27.769Z,696
2016-12-21T08:57:08.347Z,696
2016-12-21T08:57:48.958Z,700
2016-12-21T08:58:29.551Z,700
2016-12-21T08:59:10.157Z,700
2016-12-21T08:59:50.800Z,700
2016-12-21T09:00:31.417Z,700
2016-12-21T09:01:12.007Z,696
2016-12-21T09:01:52.593Z,696
2016-12-21T09:02:33.212Z,696
2016-12-21T09:03:13.816Z,696
2016-12-21T09:03:54.476Z,696
2016-12-21T09:04:35.124Z,696
2016-12-21T09:05:15.721Z,692
2016-12-21T09:05:56.339Z,696
2016-12-21T09:06:36.926Z,696
2016-12-21T09:07:17.525Z,692
2016-12-21T09:07:58.117Z,692
2016-12-21T09:08:38.757Z,692
2016-12-21T09:09:19.329Z,696
2016-12-21T09:09:59.943Z,696
2016-12-21T09:10:40.566Z,696
2016-12-21T09:11:21.179Z,696
2016-12-21T09:12:01.778Z,696
2016-12-21T09:12:42.392Z,692
2016-12-21T09:13:23.023Z,692
2016-12-21T09:14:03.611Z,688
2016-12-21T09:14:44.248Z,692
2016-12-21T09:15:24.850Z,692
2016-12-21T09:16:05.450Z,696
2016-12-21T09:16:46.043Z,696
2016-12-21T09:17:26.670Z,696
2016-12-21T09:18:07.276Z,696
2016-12-21T09:18:47.968Z,696
2016-12-21T09:19:28.631Z,696
2016-12-21T09:20:09.240Z,696
2016-12-21T09:20:49.817Z,696
2016-12-21T09:21:30.425Z,692
2016-12-21T09:22:11.064Z,684
2016-12-21T09:22:51.657Z,676
2016-12-21T09:23:32.241Z,676
2016-12-21T09:24:12.829Z,672
2016-12-21T09:24:53.422Z,676
2016-12-21T09:25:34.045Z,688
2016-12-21T09:26:14.640Z,692
2016-12-21T09:26:55.235Z,696
2016-12-21T09:27:35.859Z,680
2016-12-21T09:28:16.442Z,696
2016-12-21T09:28:57.043Z,692
2016-12-21T09:29:37.635Z,692
2016-12-21T09:30:18.224Z,692
2016-12-21T09:30:58.836Z,692
2016-12-21T09:31:39.413Z,692
2016-12-21T09:32:20.004Z,696
2016-12-21T09:33:00.586Z,692
2016-12-21T09:33:41.167Z,696
2016-12-21T09:34:22.464Z,696
2016-12-21T09:35:03.078Z,692
2016-12-21T09:35:43.681Z,692
2016-12-21T09:36:24.302Z,696
2016-12-21T09:37:04.883Z,696
2016-12-21T09:37:45.644Z,696
2016-12-21T09:38:26.368Z,696
2016-12-21T09:39:07.019Z,696
2016-12-21T09:39:47.597Z,696
2016-12-21T09:40:28.198Z,696
2016-12-21T09:41:08.793Z,696
2016-12-21T09:41:49.397Z,696
2016-12-21T09:42:29.985Z,696
2016-12-21T09:43:10.571Z,696
2016-12-21T09:43:51.166Z,696
2016-12-21T09:44:31.826Z,696
2016-12-21T09:45:12.428Z,696
2016-12-21T09:45:53.016Z,696
2016-12-21T09:46:33.653Z,696
2016-12-21T09:47:14.270Z,692
2016-12-21T09:47:54.878Z,696